Time;durP1;ratioP1;P1;durP2;ratioP2;P2;SDS_P1;SDS_P2;PMS_P1;PMS_P2;Temp;Humidity;BMP_temperature;BMP_pressure;BME280_temperature;BME280_humidity;BME280_pressure;Samples;Min_cycle;Max_cycle;Signal;HPM_P1;HPM_P2
2023/10/10 00:02:21;;;;;;;5.25;1.70;;;;;;;14.81;100.00;102106.53;7399434;19;19918;-67
2023/10/10 00:04:54;;;;;;;6.28;1.90;;;;;;;14.80;100.00;102102.97;7398244;19;19931;-67
2023/10/10 00:07:27;;;;;;;4.35;2.22;;;;;;;14.80;100.00;102102.09;7398996;19;20402;-67
2023/10/10 00:09:56;;;;;;;4.97;1.85;;;;;;;14.80;100.00;102096.69;7397834;19;20361;-67
2023/10/10 00:12:28;;;;;;;6.82;2.33;;;;;;;14.80;100.00;102096.69;7396889;19;19926;-67
2023/10/10 00:14:58;;;;;;;3.55;2.08;;;;;;;14.79;100.00;102100.44;7400173;19;19926;-67
2023/10/10 00:17:34;;;;;;;4.38;2.20;;;;;;;14.80;100.00;102102.97;7392747;19;19938;-67
2023/10/10 00:20:22;;;;;;;3.03;1.63;;;;;;;14.80;100.00;102102.09;7399203;19;19926;-66
2023/10/10 00:22:58;;;;;;;4.85;1.65;;;;;;;14.80;100.00;102102.09;7398694;19;19930;-66
2023/10/10 00:25:30;;;;;;;4.68;1.95;;;;;;;14.79;100.00;102104.00;7396894;19;19944;-67
2023/10/10 00:28:04;;;;;;;5.38;2.45;;;;;;;14.80;100.00;102105.66;7397386;19;19952;-67
2023/10/10 00:30:42;;;;;;;5.15;2.20;;;;;;;14.79;100.00;102105.88;7398959;19;20295;-67
2023/10/10 00:33:16;;;;;;;5.85;2.83;;;;;;;14.78;100.00;102105.00;7397149;19;19951;-66
2023/10/10 00:35:47;;;;;;;5.30;2.03;;;;;;;14.79;100.00;102092.31;7397345;19;19918;-66
2023/10/10 00:38:24;;;;;;;6.97;2.30;;;;;;;14.78;100.00;102090.59;7396203;19;19944;-67
2023/10/10 00:40:54;;;;;;;8.95;2.50;;;;;;;14.79;100.00;102092.31;7396352;19;20000;-67
2023/10/10 00:43:24;;;;;;;5.85;2.80;;;;;;;14.78;100.00;102091.44;7398919;19;19994;-66
2023/10/10 00:45:57;;;;;;;6.72;2.80;;;;;;;14.80;100.00;102094.81;7394720;19;19935;-66
2023/10/10 00:48:29;;;;;;;7.20;2.83;;;;;;;14.81;100.00;102087.53;7394014;19;19922;-66
2023/10/10 00:51:10;;;;;;;5.35;2.47;;;;;;;14.79;100.00;102085.00;7399422;19;19922;-67
2023/10/10 00:53:45;;;;;;;4.38;2.58;;;;;;;14.81;100.00;102098.38;7397688;19;19956;-66
2023/10/10 00:56:14;;;;;;;7.05;2.72;;;;;;;14.80;100.00;102096.69;7397797;19;19919;-66
2023/10/10 00:58:46;;;;;;;7.22;3.00;;;;;;;14.80;100.00;102085.84;7397745;19;19948;-67
2023/10/10 01:01:14;;;;;;;6.40;2.50;;;;;;;14.78;100.00;102086.03;7395576;19;19946;-67
2023/10/10 01:03:49;;;;;;;6.15;2.80;;;;;;;14.78;100.00;102074.31;7397550;19;19922;-67
2023/10/10 01:06:24;;;;;;;6.63;2.80;;;;;;;14.76;100.00;102071.78;7397778;19;19928;-67
2023/10/10 01:08:53;;;;;;;5.82;2.58;;;;;;;14.77;100.00;102073.47;7398370;19;19961;-66
2023/10/10 01:11:22;;;;;;;6.88;3.03;;;;;;;14.77;100.00;102069.91;7398026;19;19939;-67
2023/10/10 01:13:52;;;;;;;5.95;2.60;;;;;;;14.78;100.00;102077.03;7395252;19;20360;-66
2023/10/10 01:16:25;;;;;;;9.32;2.70;;;;;;;14.75;100.00;102071.97;7395140;19;19960;-66
2023/10/10 01:18:57;;;;;;;4.65;2.88;;;;;;;14.74;100.00;102067.56;7394542;19;19922;-66
2023/10/10 01:21:37;;;;;;;7.47;2.45;;;;;;;14.73;100.00;102065.84;7396124;19;19922;-66
2023/10/10 01:24:11;;;;;;;7.43;2.75;;;;;;;14.73;100.00;102065.84;7396165;19;19926;-66
2023/10/10 01:26:44;;;;;;;8.57;2.85;;;;;;;14.71;100.00;102070.63;7397050;19;20341;-67
2023/10/10 01:29:21;;;;;;;3.80;2.63;;;;;;;14.71;100.00;102062.50;7392703;19;19948;-66
2023/10/10 01:31:51;;;;;;;7.28;2.88;;;;;;;14.70;100.00;102060.78;7391331;19;19923;-66
2023/10/10 01:37:14;;;;;;;6.93;2.58;;;;;;;14.69;100.00;102053.66;7396216;19;19986;-66
2023/10/10 01:39:53;;;;;;;6.88;3.00;;;;;;;14.70;100.00;102044.53;7393346;19;19933;-67
2023/10/10 01:42:31;;;;;;;10.60;3.17;;;;;;;14.70;100.00;102039.94;7394484;19;19926;-67
2023/10/10 01:45:03;;;;;;;6.82;3.00;;;;;;;14.69;100.00;102037.41;7395023;19;19933;-66
2023/10/10 01:47:34;;;;;;;4.40;2.65;;;;;;;14.68;100.00;102036.53;7391952;19;20001;-66
2023/10/10 01:50:08;;;;;;;10.30;3.20;;;;;;;14.67;100.00;102034.03;7396943;19;19918;-67
2023/10/10 01:52:45;;;;;;;5.03;2.80;;;;;;;14.63;100.00;102038.09;7391959;19;19923;-66
2023/10/10 01:55:17;;;;;;;6.88;3.83;;;;;;;14.60;100.00;102044.72;7393738;19;20357;-66
2023/10/10 01:57:45;;;;;;;8.77;3.15;;;;;;;14.58;100.00;102045.94;7399000;19;20318;-67
2023/10/10 02:00:26;;;;;;;9.25;4.03;;;;;;;14.56;100.00;102048.81;7396110;19;19926;-67
2023/10/10 02:02:55;;;;;;;6.22;3.13;;;;;;;14.52;100.00;102032.03;7396442;19;19941;-66
2023/10/10 02:05:40;;;;;;;5.72;3.00;;;;;;;14.49;100.00;102029.69;7396066;19;19943;-66
2023/10/10 02:08:16;;;;;;;6.90;2.95;;;;;;;14.46;100.00;102031.88;7395384;19;19922;-67
2023/10/10 02:10:46;;;;;;;4.85;3.58;;;;;;;14.43;100.00;102030.38;7394862;19;19923;-67
2023/10/10 02:13:16;;;;;;;6.93;3.20;;;;;;;14.43;100.00;102027.66;7395347;19;19939;-67
2023/10/10 02:15:45;;;;;;;8.85;3.38;;;;;;;14.44;100.00;102025.78;7397404;19;19939;-67
2023/10/10 02:18:23;;;;;;;7.85;3.60;;;;;;;14.43;100.00;102024.09;7391788;19;19930;-67
2023/10/10 02:20:52;;;;;;;6.55;3.30;;;;;;;14.44;100.00;102025.78;7391483;19;19918;-67
2023/10/10 02:23:31;;;;;;;5.63;3.45;;;;;;;14.46;100.00;102021.03;7392210;19;19934;-67
2023/10/10 02:26:02;;;;;;;8.07;3.40;;;;;;;14.45;100.00;102014.75;7392394;19;19914;-66
2023/10/10 02:28:43;;;;;;;9.40;4.10;;;;;;;14.45;100.00;102006.63;7394673;19;19923;-67
2023/10/10 02:31:15;;;;;;;7.47;3.60;;;;;;;14.46;100.00;102002.91;7394108;19;19934;-67
2023/10/10 02:33:48;;;;;;;12.10;3.67;;;;;;;14.48;100.00;102000.03;7393353;19;19978;-66
2023/10/10 02:36:30;;;;;;;7.78;3.45;;;;;;;14.49;100.00;101999.00;7396166;19;19938;-67
2023/10/10 02:39:28;;;;;;;10.95;3.55;;;;;;;14.49;100.00;101999.84;7395304;19;19922;-67
2023/10/10 02:42:03;;;;;;;5.72;3.60;;;;;;;14.49;100.00;102004.44;7401768;19;19937;-67
2023/10/10 02:44:57;;;;;;;8.23;4.07;;;;;;;14.49;100.00;101993.59;7400179;19;20280;-67
2023/10/10 02:47:32;;;;;;;10.30;3.88;;;;;;;14.48;100.00;101994.59;7398531;19;19940;-67
2023/10/10 02:50:13;;;;;;;7.40;3.83;;;;;;;14.49;100.00;101988.16;7399537;19;19947;-67
2023/10/10 02:52:45;;;;;;;6.90;3.88;;;;;;;14.49;100.00;101988.16;7400666;19;19929;-67
2023/10/10 02:55:22;;;;;;;7.68;4.10;;;;;;;14.48;100.00;101994.59;7400117;19;19922;-67
2023/10/10 02:57:53;;;;;;;7.35;3.97;;;;;;;14.48;100.00;101995.44;7400583;19;19918;-67
2023/10/10 03:00:34;;;;;;;6.43;3.83;;;;;;;14.50;100.00;102000.69;7401885;19;19923;-67
2023/10/10 03:03:03;;;;;;;8.00;3.97;;;;;;;14.50;100.00;101997.97;7397731;19;19932;-67
2023/10/10 03:05:43;;;;;;;5.05;3.25;;;;;;;14.53;100.00;102003.06;7399732;19;19923;-67
2023/10/10 03:08:18;;;;;;;6.05;3.90;;;;;;;14.54;100.00;102002.00;7399262;19;19919;-67
2023/10/10 03:11:00;;;;;;;8.40;3.80;;;;;;;14.56;100.00;102002.69;7399694;19;19950;-67
2023/10/10 03:13:47;;;;;;;5.45;3.35;;;;;;;14.57;100.00;101998.13;7397628;19;19922;-67
2023/10/10 03:16:41;;;;;;;7.03;3.63;;;;;;;14.58;100.00;102006.09;7391730;19;19947;-67
2023/10/10 03:19:19;;;;;;;7.57;3.65;;;;;;;14.59;100.00;101998.78;7395753;19;20348;-67
2023/10/10 03:21:51;;;;;;;7.07;4.05;;;;;;;14.61;100.00;102002.16;7398686;19;19922;-67
2023/10/10 03:24:36;;;;;;;10.57;4.00;;;;;;;14.60;100.00;101995.91;7399507;19;20014;-66
2023/10/10 03:27:48;;;;;;;10.77;4.00;;;;;;;14.60;100.00;101993.19;7399727;19;19953;-67
2023/10/10 03:30:20;;;;;;;7.80;3.58;;;;;;;14.61;100.00;101992.19;7399858;19;19938;-67
2023/10/10 03:33:16;;;;;;;10.68;3.50;;;;;;;14.63;100.00;101994.69;7402961;19;19922;-67
2023/10/10 03:35:52;;;;;;;9.73;3.75;;;;;;;14.63;100.00;101995.53;7398467;19;19918;-67
2023/10/10 05:23:52;;;;;;;6.85;3.55;;;;;;;14.97;100.00;101959.94;7396453;19;19926;-66
2023/10/10 05:26:21;;;;;;;7.55;3.10;;;;;;;14.97;100.00;101958.06;7395828;19;19922;-66
2023/10/10 05:28:50;;;;;;;6.25;3.28;;;;;;;14.98;100.00;101950.75;7394783;19;19930;-67
2023/10/10 05:31:21;;;;;;;6.82;3.97;;;;;;;14.98;100.00;101953.47;7396266;19;19994;-66
2023/10/10 05:33:50;;;;;;;6.38;3.75;;;;;;;14.98;100.00;101948.03;7398360;19;19940;-67
2023/10/10 05:36:24;;;;;;;6.28;3.75;;;;;;;14.98;100.00;101951.59;7393708;19;19926;-66
2023/10/10 05:38:52;;;;;;;11.45;4.47;;;;;;;14.97;100.00;101949.09;7396421;19;19952;-67
2023/10/10 05:41:22;;;;;;;11.55;4.38;;;;;;;14.96;100.00;101941.97;7395815;19;19926;-66
2023/10/10 05:43:51;;;;;;;7.55;3.97;;;;;;;14.97;100.00;101949.09;7396308;19;20561;-66
2023/10/10 05:46:20;;;;;;;7.97;4.15;;;;;;;14.95;100.00;101943.84;7394561;19;19926;-66
2023/10/10 05:48:50;;;;;;;6.68;4.65;;;;;;;14.95;100.00;101943.00;7394863;19;19922;-67
2023/10/10 05:51:18;;;;;;;11.77;4.50;;;;;;;14.94;100.00;101942.13;7393227;19;19927;-67
2023/10/10 05:53:50;;;;;;;11.35;4.82;;;;;;;14.97;100.00;101935.53;7394624;19;19919;-67
2023/10/10 05:56:19;;;;;;;5.50;4.32;;;;;;;14.96;100.00;101937.41;7392467;19;20341;-68
2023/10/10 05:58:48;;;;;;;8.15;4.55;;;;;;;14.95;100.00;101927.56;7386914;19;20002;-68
2023/10/10 06:01:18;;;;;;;8.68;4.95;;;;;;;14.94;100.00;101928.56;7390994;19;19929;-69
2023/10/10 06:03:47;;;;;;;9.60;5.00;;;;;;;14.94;100.00;101934.00;7389527;19;20368;-69
2023/10/10 06:06:18;;;;;;;6.10;4.60;;;;;;;14.95;100.00;101924.00;7392214;19;19919;-70
2023/10/10 06:08:47;;;;;;;11.02;5.03;;;;;;;14.94;100.00;101922.28;7393664;19;19918;-69
2023/10/10 06:11:18;;;;;;;9.32;4.05;;;;;;;14.93;100.00;101917.88;7388118;19;19936;-69
2023/10/10 06:13:48;;;;;;;7.22;4.20;;;;;;;14.93;100.00;101920.59;7394424;19;19922;-69
2023/10/10 06:16:17;;;;;;;7.63;5.45;;;;;;;14.91;100.00;101923.50;7395583;19;19918;-69
2023/10/10 06:18:50;;;;;;;6.95;4.90;;;;;;;14.91;100.00;101930.81;7396793;19;20277;-69
2023/10/10 06:21:19;;;;;;;11.15;4.60;;;;;;;14.89;100.00;101922.00;7399198;19;19930;-69
2023/10/10 06:23:49;;;;;;;7.57;4.68;;;;;;;14.89;100.00;101930.13;7395330;19;19922;-67
2023/10/10 06:26:22;;;;;;;6.53;4.57;;;;;;;14.88;100.00;101923.03;7397476;19;19925;-69
2023/10/10 06:28:53;;;;;;;5.75;4.35;;;;;;;14.86;100.00;101912.34;7400687;19;20269;-67
2023/10/10 06:31:33;;;;;;;7.63;4.65;;;;;;;14.85;100.00;101918.78;7400505;19;20309;-67
2023/10/10 06:34:19;;;;;;;9.93;4.88;;;;;;;14.83;100.00;101915.44;7397657;19;19974;-67
2023/10/10 06:36:51;;;;;;;9.32;4.80;;;;;;;14.82;100.00;101923.75;7400355;19;19926;-67
2023/10/10 06:39:32;;;;;;;9.88;4.20;;;;;;;14.81;100.00;101913.91;7399118;19;19934;-67
2023/10/10 06:42:05;;;;;;;9.57;5.22;;;;;;;14.80;100.00;101912.22;7400993;19;19929;-67
2023/10/10 06:44:39;;;;;;;9.00;5.32;;;;;;;14.80;100.00;101918.47;7398363;19;19926;-67
2023/10/10 06:47:12;;;;;;;11.15;5.35;;;;;;;14.80;100.00;101915.78;7381832;19;20632;-69
2023/10/10 06:49:53;;;;;;;10.05;5.10;;;;;;;14.81;100.00;101922.88;7398307;19;20277;-67
2023/10/10 06:52:23;;;;;;;14.88;6.53;;;;;;;14.82;100.00;101912.88;7397863;19;19926;-67
2023/10/10 06:55:10;;;;;;;15.77;6.45;;;;;;;14.84;100.00;101922.53;7398349;19;19927;-67
2023/10/10 06:57:57;;;;;;;13.15;6.50;;;;;;;14.86;100.00;101925.91;7400510;19;19914;-67
2023/10/10 07:00:41;;;;;;;12.77;6.53;;;;;;;14.89;100.00;101916.56;7395083;19;19930;-67
2023/10/10 07:03:11;;;;;;;13.75;6.80;;;;;;;14.93;100.00;101920.59;7395126;19;20580;-67
2023/10/10 07:05:42;;;;;;;10.27;6.65;;;;;;;14.96;100.00;101925.69;7397729;19;19919;-67
2023/10/10 07:08:19;;;;;;;12.98;6.95;;;;;;;14.97;100.00;101922.78;7400688;19;19990;-67
2023/10/10 07:10:56;;;;;;;14.48;7.22;;;;;;;14.99;100.00;101930.75;7391271;19;19922;-67
2023/10/10 07:13:29;;;;;;;13.35;7.00;;;;;;;15.04;100.00;101935.63;7396766;19;19925;-69
2023/10/10 07:15:58;;;;;;;15.90;7.57;;;;;;;15.05;100.00;101932.75;7396107;19;19936;-68
2023/10/10 07:18:26;;;;;;;14.25;6.85;;;;;;;15.08;100.00;101926.09;7395735;19;19926;-68
2023/10/10 07:21:08;;;;;;;14.38;7.28;;;;;;;15.08;100.00;101918.81;7397245;19;20349;-68
2023/10/10 07:24:02;;;;;;;13.65;8.57;;;;;;;15.09;100.00;101906.94;7398557;19;19985;-68
2023/10/10 07:26:40;;;;;;;15.65;8.15;;;;;;;15.11;100.00;101901.31;7396524;19;19923;-68
2023/10/10 07:32:16;;;;;;;11.77;7.20;;;;;;;15.13;100.00;101910.97;7393126;19;19944;-68
2023/10/10 07:34:49;;;;;;;14.38;7.82;;;;;;;15.13;100.00;101905.56;7395107;19;19937;-68
2023/10/10 07:37:18;;;;;;;15.25;8.20;;;;;;;15.19;100.00;101891.22;7400749;19;20279;-67
2023/10/10 07:40:09;;;;;;;14.25;7.90;;;;;;;15.25;100.00;101885.09;7399431;19;19930;-68
2023/10/10 07:42:38;;;;;;;13.63;7.25;;;;;;;15.34;100.00;101881.28;7398217;19;19930;-68
2023/10/10 07:45:15;;;;;;;11.57;7.70;;;;;;;15.45;100.00;101885.41;7399674;19;19940;-69
2023/10/10 07:50:26;;;;;;;13.15;8.13;;;;;;;15.63;100.00;101869.63;7395702;19;19919;-68
2023/10/10 07:52:55;;;;;;;15.68;8.60;;;;;;;15.71;100.00;101864.13;7399159;19;20357;-68
2023/10/10 07:55:32;;;;;;;14.93;8.10;;;;;;;15.78;100.00;101869.66;7399897;19;19929;-68
2023/10/10 07:58:06;;;;;;;14.18;8.80;;;;;;;15.80;100.00;101871.16;7394611;19;19918;-68
2023/10/10 08:00:39;;;;;;;18.30;8.95;;;;;;;15.81;100.00;101858.41;7400538;19;19923;-68
2023/10/10 08:03:13;;;;;;;14.10;8.57;;;;;;;15.85;100.00;101870.59;7400614;19;19930;-68
2023/10/10 08:05:42;;;;;;;18.00;8.88;;;;;;;15.86;100.00;101873.13;7397198;19;20330;-68
2023/10/10 08:08:15;;;;;;;14.82;8.05;;;;;;;15.87;100.00;101860.41;7401099;19;19926;-68
2023/10/10 08:10:46;;;;;;;16.92;9.60;;;;;;;15.89;100.00;101856.44;7399934;19;20384;-67
2023/10/10 08:13:14;;;;;;;16.30;9.63;;;;;;;15.95;100.00;101856.72;7399637;19;19923;-67
2023/10/10 08:15:56;;;;;;;16.98;9.27;;;;;;;15.99;100.00;101858.03;7396927;19;19957;-67
2023/10/10 08:21:13;;;;;;;18.25;10.15;;;;;;;16.13;100.00;101863.47;7397665;19;19929;-68
2023/10/10 08:23:46;;;;;;;19.35;10.52;;;;;;;16.23;100.00;101868.59;7398144;19;19922;-68
2023/10/10 08:26:17;;;;;;;18.75;10.75;;;;;;;16.26;100.00;101868.25;7399764;19;19956;-68
2023/10/10 08:28:47;;;;;;;19.85;10.68;;;;;;;16.31;100.00;101869.34;7399469;19;19922;-68
2023/10/10 08:31:19;;;;;;;21.58;11.95;;;;;;;16.32;100.00;101862.88;7399546;19;19922;-68
2023/10/10 08:33:48;;;;;;;22.83;11.75;;;;;;;16.32;100.00;101865.59;7398641;19;19930;-68
2023/10/10 08:36:23;;;;;;;21.25;12.13;;;;;;;16.29;100.00;101860.53;7396323;19;20299;-68
2023/10/10 08:38:52;;;;;;;23.35;12.07;;;;;;;16.29;100.00;101867.84;7399418;19;19919;-67
2023/10/10 08:41:22;;;;;;;29.85;13.75;;;;;;;16.28;100.00;101867.00;7398277;19;19930;-69
2023/10/10 08:43:57;;;;;;;28.48;14.00;;;;;;;16.31;100.00;101858.47;7399304;19;20335;-68
2023/10/10 08:46:40;;;;;;;26.45;14.95;;;;;;;16.37;100.00;101847.84;7397987;19;20628;-69
2023/10/10 08:49:10;;;;;;;31.95;16.52;;;;;;;16.41;100.00;101841.00;7398472;19;19922;-68
2023/10/10 08:51:39;;;;;;;28.00;15.60;;;;;;;16.44;100.00;101852.34;7395477;19;19919;-68
2023/10/10 08:54:10;;;;;;;35.15;17.42;;;;;;;16.49;100.00;101852.59;7393690;19;20344;-69
2023/10/10 08:56:40;;;;;;;39.03;18.42;;;;;;;16.55;100.00;101857.28;7398319;19;19929;-68
2023/10/10 08:59:10;;;;;;;34.13;17.48;;;;;;;16.60;100.00;101859.47;7399334;19;19914;-68
2023/10/10 09:01:43;;;;;;;37.30;19.17;;;;;;;16.66;100.00;101859.53;7389606;19;19933;-69
2023/10/10 09:04:18;;;;;;;38.17;18.80;;;;;;;16.75;100.00;101857.53;7399195;19;19919;-68
2023/10/10 09:07:02;;;;;;;35.63;18.45;;;;;;;16.87;99.86;101855.97;7398529;19;19911;-68
2023/10/10 09:09:39;;;;;;;31.20;17.60;;;;;;;16.93;99.49;101847.03;7397672;19;19939;-68
2023/10/10 09:12:15;;;;;;;38.90;17.15;;;;;;;16.99;98.55;101850.88;7397456;19;20260;-68
2023/10/10 09:14:49;;;;;;;35.47;17.83;;;;;;;17.06;98.44;101849.03;7400437;19;19929;-68
2023/10/10 09:17:34;;;;;;;36.22;18.25;;;;;;;17.08;97.84;101846.97;7393751;19;19926;-68
2023/10/10 09:20:17;;;;;;;35.65;17.70;;;;;;;17.17;97.71;101843.91;7399042;19;19943;-69
2023/10/10 09:22:51;;;;;;;34.97;18.13;;;;;;;17.21;97.55;101845.19;7399931;19;19933;-68
2023/10/10 09:25:26;;;;;;;36.45;18.95;;;;;;;17.24;97.25;101835.78;7395517;19;20337;-69
2023/10/10 09:28:04;;;;;;;36.38;18.95;;;;;;;17.28;97.14;101828.06;7400241;19;19949;-68
2023/10/10 09:30:34;;;;;;;30.70;17.27;;;;;;;17.37;97.50;101835.91;7398435;19;19942;-68
2023/10/10 09:33:22;;;;;;;34.75;18.40;;;;;;;17.37;96.60;101838.63;7399386;19;19919;-68
2023/10/10 09:35:54;;;;;;;35.00;17.85;;;;;;;17.37;96.96;101835.91;7396813;19;19929;-68
2023/10/10 09:38:26;;;;;;;35.50;19.35;;;;;;;17.36;96.90;101839.66;7397652;19;19978;-68
2023/10/10 09:41:10;;;;;;;33.08;18.67;;;;;;;17.40;96.72;101832.78;7397718;19;19985;-68
2023/10/10 09:43:49;;;;;;;31.05;18.20;;;;;;;17.57;95.71;101830.56;7397723;19;20339;-68
2023/10/10 09:46:25;;;;;;;30.40;18.35;;;;;;;17.68;94.91;101824.63;7393638;19;19930;-69
2023/10/10 09:54:36;;;;;;;33.05;18.42;;;;;;;17.73;94.36;101813.97;7393119;19;19915;-68
2023/10/10 09:57:09;;;;;;;32.80;18.75;;;;;;;17.81;94.17;101816.53;7395171;19;20344;-68
2023/10/10 09:59:42;;;;;;;29.55;17.60;;;;;;;17.97;93.30;101816.19;7395436;19;20301;-68
2023/10/10 10:02:16;;;;;;;31.92;17.00;;;;;;;18.06;92.71;101817.69;7397499;19;20268;-69
2023/10/10 10:04:59;;;;;;;33.85;19.23;;;;;;;18.28;91.09;101814.84;7397383;19;19926;-68
2023/10/10 10:07:56;;;;;;;35.58;19.80;;;;;;;18.31;88.88;101825.34;7396920;19;19918;-68
2023/10/10 10:10:48;;;;;;;36.72;19.15;;;;;;;18.42;90.10;101825.56;7395945;19;19934;-68
2023/10/10 10:13:38;;;;;;;35.60;18.92;;;;;;;18.49;87.68;101826.44;7392076;19;20324;-70
2023/10/10 10:16:29;;;;;;;35.90;20.67;;;;;;;18.41;87.03;101821.19;7376102;19;19990;-69
2023/10/10 10:19:11;;;;;;;36.65;19.85;;;;;;;18.35;89.25;101819.25;7379121;19;19914;-68
2023/10/10 10:22:05;;;;;;;36.88;20.25;;;;;;;18.28;89.34;101823.03;7357710;19;20353;-69
2023/10/10 10:24:44;;;;;;;40.53;21.17;;;;;;;18.36;89.34;101820.09;7393555;19;19923;-69
2023/10/10 10:27:24;;;;;;;39.03;21.13;;;;;;;18.46;87.99;101820.56;7386538;19;20345;-68
2023/10/10 10:30:07;;;;;;;39.83;21.05;;;;;;;18.54;87.84;101820.41;7385521;19;20353;-68
2023/10/10 10:32:37;;;;;;;41.25;20.60;;;;;;;18.65;87.24;101817.06;7391739;19;19918;-68
2023/10/10 10:35:12;;;;;;;40.67;20.30;;;;;;;18.74;87.10;101825.91;7391324;19;19923;-69
2023/10/10 10:37:50;;;;;;;40.25;20.52;;;;;;;18.78;85.38;101825.28;7393656;19;20273;-69
2023/10/10 10:40:24;;;;;;;39.60;21.00;;;;;;;18.84;84.14;101810.81;7391189;19;19922;-69
2023/10/10 10:42:53;;;;;;;39.15;20.08;;;;;;;18.92;85.96;101799.69;7389755;19;19923;-67
2023/10/10 10:45:24;;;;;;;38.88;20.08;;;;;;;19.00;85.52;101794.00;7390011;19;19933;-68
2023/10/10 10:47:54;;;;;;;39.83;19.67;;;;;;;19.10;85.94;101790.00;7389412;19;19978;-68
2023/10/10 10:50:45;;;;;;;40.13;20.50;;;;;;;19.08;83.26;101792.94;7391101;19;19926;-68
2023/10/10 10:53:35;;;;;;;39.00;20.58;;;;;;;19.18;83.80;101795.25;7389481;19;20395;-68
2023/10/10 11:01:36;;;;;;;40.17;19.45;;;;;;;19.32;82.87;101789.59;7396298;19;19933;-67
2023/10/10 11:04:13;;;;;;;35.28;19.83;;;;;;;19.37;82.96;101792.50;7397163;19;19914;-69
2023/10/10 11:06:59;;;;;;;37.15;19.35;;;;;;;19.50;82.28;101782.66;7400482;19;19922;-69
2023/10/10 11:09:42;;;;;;;35.88;18.13;;;;;;;19.54;81.19;101779.28;7398196;19;22543;-69
2023/10/10 11:12:12;;;;;;;34.20;19.25;;;;;;;19.63;81.87;101783.44;7399705;19;19919;-69
2023/10/10 11:14:49;;;;;;;38.70;19.08;;;;;;;19.72;81.28;101789.50;7400312;19;19930;-69
2023/10/10 11:17:21;;;;;;;35.10;19.92;;;;;;;19.75;81.48;101792.69;7395218;19;22139;-69
2023/10/10 11:19:57;;;;;;;35.60;19.80;;;;;;;19.77;81.08;101779.63;7400651;19;20551;-69
2023/10/10 11:22:40;;;;;;;34.22;19.00;;;;;;;19.87;80.05;101780.00;7397474;19;20281;-69
2023/10/10 11:25:19;;;;;;;36.88;19.17;;;;;;;20.02;79.58;101776.16;7393952;19;20376;-68
2023/10/10 11:27:50;;;;;;;33.35;19.00;;;;;;;20.22;78.80;101772.28;7393694;19;19985;-68
2023/10/10 11:30:24;;;;;;;35.45;18.38;;;;;;;20.30;79.40;101773.94;7396912;19;19955;-69
2023/10/10 11:33:16;;;;;;;33.15;18.70;;;;;;;20.29;78.98;101777.69;7395084;19;19922;-68
2023/10/10 11:35:50;;;;;;;31.17;16.17;;;;;;;20.20;79.64;101768.06;7396542;19;19918;-68
2023/10/10 11:38:39;;;;;;;34.45;19.65;;;;;;;20.05;77.78;101781.19;7395517;19;19930;-68
2023/10/10 11:41:11;;;;;;;32.83;17.70;;;;;;;19.96;79.03;101774.28;7396328;19;20302;-68
2023/10/10 11:44:01;;;;;;;33.70;18.75;;;;;;;19.87;79.68;101769.06;7400487;19;19922;-68
2023/10/10 11:46:30;;;;;;;34.38;19.40;;;;;;;19.90;80.67;101770.53;7394844;19;19919;-68
2023/10/10 11:48:59;;;;;;;33.05;18.30;;;;;;;20.05;80.59;101773.84;7397188;19;19953;-68
2023/10/10 11:51:38;;;;;;;31.45;16.90;;;;;;;20.19;78.05;101758.19;7395658;19;19930;-69
2023/10/10 11:54:25;;;;;;;38.25;19.00;;;;;;;20.26;79.41;101756.25;7397158;19;19930;-68
2023/10/10 11:56:56;;;;;;;31.10;17.73;;;;;;;20.52;77.85;101753.38;7396955;19;20025;-69
2023/10/10 11:59:25;;;;;;;36.90;19.02;;;;;;;20.76;77.47;101747.09;7396060;19;19948;-69
2023/10/10 12:02:16;;;;;;;32.50;18.38;;;;;;;20.98;77.28;101754.91;7398318;19;19926;-68
2023/10/10 12:04:47;;;;;;;29.73;16.23;;;;;;;21.06;76.80;101766.44;7393417;19;19933;-67
2023/10/10 12:07:18;;;;;;;26.63;15.55;;;;;;;20.99;76.30;101762.06;7395558;19;19918;-68
2023/10/10 12:10:07;;;;;;;27.50;15.38;;;;;;;21.04;76.17;101765.84;7395544;19;19933;-68
2023/10/10 12:12:39;;;;;;;30.95;15.48;;;;;;;21.12;75.78;101751.00;7390098;19;20515;-68
2023/10/10 12:15:19;;;;;;;26.70;14.80;;;;;;;21.27;75.47;101738.66;7392604;19;19939;-68
2023/10/10 12:17:57;;;;;;;25.05;14.57;;;;;;;21.47;74.52;101735.72;7391102;19;19961;-69
2023/10/10 12:20:36;;;;;;;25.42;14.07;;;;;;;21.38;74.06;101734.31;7393293;19;19936;-68
2023/10/10 12:23:06;;;;;;;28.40;14.30;;;;;;;21.30;74.25;101748.34;7392656;19;19975;-68
2023/10/10 12:25:37;;;;;;;22.83;12.13;;;;;;;21.25;74.39;101731.72;7395434;19;19948;-68
2023/10/10 12:28:09;;;;;;;26.98;14.07;;;;;;;21.13;72.79;101730.78;7396908;19;19926;-68
2023/10/10 12:30:43;;;;;;;24.85;14.15;;;;;;;21.13;74.82;101728.06;7398074;19;19926;-68
2023/10/10 12:33:12;;;;;;;20.58;13.65;;;;;;;21.10;74.08;101725.72;7394405;19;20423;-68
2023/10/10 12:35:42;;;;;;;25.42;12.70;;;;;;;21.15;74.18;101724.00;7396207;19;19948;-68
2023/10/10 12:38:15;;;;;;;24.42;13.38;;;;;;;21.07;72.82;101727.00;7397110;19;19933;-68
2023/10/10 12:40:44;;;;;;;22.75;12.38;;;;;;;21.06;73.51;101724.50;7398648;19;19954;-68
2023/10/10 12:43:15;;;;;;;24.25;12.07;;;;;;;21.07;72.87;101731.66;7395699;19;19926;-69
2023/10/10 12:45:45;;;;;;;25.17;12.77;;;;;;;21.03;74.01;101728.53;7396780;19;20379;-68
2023/10/10 12:48:20;;;;;;;20.77;12.10;;;;;;;21.05;72.71;101726.41;7391830;19;20353;-69
2023/10/10 12:50:50;;;;;;;20.73;12.27;;;;;;;21.03;72.85;101719.47;7394354;19;20019;-68
2023/10/10 12:53:19;;;;;;;20.15;11.55;;;;;;;21.05;73.41;101715.47;7394888;19;20275;-68
2023/10/10 12:56:00;;;;;;;22.85;12.20;;;;;;;21.07;72.95;101707.00;7394039;19;19960;-68
2023/10/10 12:58:32;;;;;;;20.77;11.25;;;;;;;21.12;72.84;101693.47;7394661;19;19922;-68
2023/10/10 13:01:01;;;;;;;24.75;12.15;;;;;;;21.25;72.49;101705.16;7393705;19;19922;-68
2023/10/10 13:03:31;;;;;;;21.35;13.30;;;;;;;21.43;72.08;101695.28;7388231;19;19926;-70
2023/10/10 13:06:03;;;;;;;23.10;13.15;;;;;;;21.45;73.00;101699.44;7393854;19;19918;-68
2023/10/10 13:08:38;;;;;;;19.08;11.93;;;;;;;21.48;72.57;101695.44;7391921;19;19926;-68
2023/10/10 13:11:12;;;;;;;22.27;12.88;;;;;;;21.66;72.05;101690.75;7387850;19;19925;-69
2023/10/10 13:13:48;;;;;;;24.40;11.38;;;;;;;21.91;70.26;101681.59;7393420;19;19926;-68
2023/10/10 13:16:37;;;;;;;24.75;12.13;;;;;;;22.12;70.63;101694.81;7392666;19;20272;-69
2023/10/10 13:19:09;;;;;;;28.30;12.50;;;;;;;22.35;68.51;101675.66;7395096;19;19922;-68
2023/10/10 13:21:38;;;;;;;20.55;11.88;;;;;;;22.49;68.84;101679.03;7393870;19;19990;-68
2023/10/10 13:24:11;;;;;;;18.23;11.38;;;;;;;22.35;69.18;101672.09;7393851;19;19926;-69
2023/10/10 13:26:40;;;;;;;23.73;12.43;;;;;;;22.25;69.34;101675.41;7384794;19;20253;-69
2023/10/10 13:29:13;;;;;;;23.08;11.98;;;;;;;22.16;68.46;101674.06;7391639;19;19915;-68
2023/10/10 13:31:44;;;;;;;20.33;12.10;;;;;;;22.17;68.37;101670.25;7395837;19;19919;-68
2023/10/10 13:34:13;;;;;;;20.88;12.30;;;;;;;22.31;68.45;101668.13;7399045;19;19952;-68
2023/10/10 13:36:42;;;;;;;20.02;10.88;;;;;;;22.49;67.77;101670.78;7394094;19;20026;-69
2023/10/10 13:39:15;;;;;;;20.50;12.60;;;;;;;22.48;68.89;101660.88;7387936;19;20222;-70
2023/10/10 13:41:44;;;;;;;23.08;12.98;;;;;;;22.32;68.46;101662.41;7385520;19;20381;-70
2023/10/10 13:44:18;;;;;;;24.60;14.60;;;;;;;22.29;69.06;101664.78;7395378;19;19922;-69
2023/10/10 13:46:47;;;;;;;24.63;13.63;;;;;;;22.31;69.38;101668.97;7390485;19;19926;-69
2023/10/10 13:49:15;;;;;;;28.10;13.73;;;;;;;22.41;70.21;101665.66;7395593;19;19914;-69
2023/10/10 13:51:45;;;;;;;26.15;13.55;;;;;;;22.34;69.68;101668.50;7396725;19;19922;-69
2023/10/10 13:54:15;;;;;;;25.30;14.15;;;;;;;22.10;69.23;101667.59;7397102;19;19930;-69
2023/10/10 13:56:44;;;;;;;20.90;12.15;;;;;;;21.89;69.90;101659.84;7391163;19;19958;-69